Time;durP1;ratioP1;P1;durP2;ratioP2;P2;SDS_P1;SDS_P2;PMS_P1;PMS_P2;Temp;Humidity;BMP_temperature;BMP_pressure;BME280_temperature;BME280_humidity;BME280_pressure;Samples;Min_cycle;Max_cycle;Signal;HPM_P1;HPM_P2
2023/10/29 00:01:55;;;;;;;0.57;0.50;;;;;;;;;;4998925;28;20069;-90
2023/10/29 00:04:21;;;;;;;0.70;0.70;;;;;;;;;;5000284;28;20458;-85
2023/10/29 00:06:47;;;;;;;0.75;0.65;;;;;;;;;;4980349;28;20069;-87
2023/10/29 00:09:13;;;;;;;1.00;0.80;;;;;;;;;;4979880;28;20082;-84
2023/10/29 00:11:40;;;;;;;0.73;0.70;;;;;;;;;;4979116;28;20389;-85
2023/10/29 00:14:06;;;;;;;0.98;0.70;;;;;;;;;;4978311;28;20030;-86
2023/10/29 00:16:32;;;;;;;0.80;0.70;;;;;;;;;;4962537;28;20035;-86
2023/10/29 00:18:58;;;;;;;0.55;0.55;;;;;;;;;;4978652;28;20056;-85
2023/10/29 00:21:24;;;;;;;0.63;0.60;;;;;;;;;;4978836;28;20402;-86
2023/10/29 00:23:50;;;;;;;1.52;0.93;;;;;;;;;;4978897;28;20023;-87
2023/10/29 00:26:16;;;;;;;0.80;0.70;;;;;;;;;;4979649;28;20516;-87
2023/10/29 00:28:42;;;;;;;2.55;1.10;;;;;;;;;;4978986;28;20069;-86
2023/10/29 00:31:09;;;;;;;0.95;0.82;;;;;;;;;;4978774;28;20109;-85
2023/10/29 00:33:35;;;;;;;0.88;0.80;;;;;;;;;;4978495;28;20037;-88
2023/10/29 00:36:01;;;;;;;1.00;0.80;;;;;;;;;;4978821;28;20475;-86
2023/10/29 00:38:27;;;;;;;0.60;0.60;;;;;;;;;;4982512;28;20179;-84
2023/10/29 00:40:54;;;;;;;0.55;0.55;;;;;;;;;;5018472;28;20362;-85
2023/10/29 00:43:21;;;;;;;0.80;0.70;;;;;;;;;;5017078;28;20026;-86
2023/10/29 00:45:52;;;;;;;1.00;0.60;;;;;;;;;;5018289;28;20022;-84
2023/10/29 00:48:18;;;;;;;0.85;0.75;;;;;;;;;;5018379;28;20036;-85
2023/10/29 00:50:44;;;;;;;0.70;0.60;;;;;;;;;;5018343;28;20355;-84
2023/10/29 00:53:10;;;;;;;0.75;0.70;;;;;;;;;;5019228;28;20472;-85
2023/10/29 00:55:37;;;;;;;0.77;0.70;;;;;;;;;;5018126;28;20057;-85
2023/10/29 00:58:04;;;;;;;0.88;0.70;;;;;;;;;;5017227;28;20032;-85
2023/10/29 01:00:30;;;;;;;0.90;0.80;;;;;;;;;;5020309;28;19998;-84
2023/10/29 01:02:56;;;;;;;0.80;0.70;;;;;;;;;;5035506;28;20033;-86
2023/10/29 01:05:22;;;;;;;1.05;0.80;;;;;;;;;;5017986;28;20018;-86
2023/10/29 01:07:49;;;;;;;0.85;0.70;;;;;;;;;;5017428;28;20045;-85
2023/10/29 01:10:15;;;;;;;0.95;0.90;;;;;;;;;;5015777;28;20030;-86
2023/10/29 01:12:41;;;;;;;0.85;0.70;;;;;;;;;;5016146;28;20080;-86
2023/10/29 01:15:07;;;;;;;0.73;0.73;;;;;;;;;;5016244;28;20477;-85
2023/10/29 01:17:33;;;;;;;1.05;0.80;;;;;;;;;;5016957;28;20030;-86
2023/10/29 01:19:59;;;;;;;1.00;0.90;;;;;;;;;;5026243;28;20049;-86
2023/10/29 01:22:25;;;;;;;0.82;0.70;;;;;;;;;;5026974;28;20025;-86
2023/10/29 01:24:51;;;;;;;0.90;0.80;;;;;;;;;;5028060;28;20115;-88
2023/10/29 01:27:18;;;;;;;1.20;0.90;;;;;;;;;;5027012;28;20028;-87
2023/10/29 01:29:44;;;;;;;0.80;0.80;;;;;;;;;;5026515;28;20021;-87
2023/10/29 01:32:10;;;;;;;0.73;0.70;;;;;;;;;;5026948;28;20120;-87
2023/10/29 01:34:36;;;;;;;0.98;0.75;;;;;;;;;;5026877;28;20018;-83
2023/10/29 01:37:03;;;;;;;0.85;0.68;;;;;;;;;;5029767;28;20026;-84
2023/10/29 01:39:29;;;;;;;1.48;1.17;;;;;;;;;;5028531;28;20026;-85
2023/10/29 01:41:57;;;;;;;0.80;0.60;;;;;;;;;;5030110;28;20053;-85
2023/10/29 01:44:24;;;;;;;0.70;0.70;;;;;;;;;;5028730;28;20026;-84
2023/10/29 01:46:50;;;;;;;0.75;0.70;;;;;;;;;;5029119;28;20026;-83
2023/10/29 01:49:16;;;;;;;0.70;0.63;;;;;;;;;;5026111;28;20041;-87
2023/10/29 01:51:42;;;;;;;1.80;0.70;;;;;;;;;;5023557;28;20113;-87
2023/10/29 01:54:08;;;;;;;0.80;0.70;;;;;;;;;;5017972;28;20032;-86
2023/10/29 01:56:34;;;;;;;0.70;0.60;;;;;;;;;;5018437;28;20033;-85
2023/10/29 01:59:00;;;;;;;0.73;0.70;;;;;;;;;;5021375;28;20060;-86
2023/10/29 02:01:27;;;;;;;2.00;1.35;;;;;;;;;;5022807;28;20032;-86
2023/10/29 02:03:53;;;;;;;1.52;0.90;;;;;;;;;;5017354;28;20017;-86
2023/10/29 02:06:19;;;;;;;0.60;0.60;;;;;;;;;;5016927;28;20029;-85
2023/10/29 02:08:45;;;;;;;0.60;0.60;;;;;;;;;;5020221;28;20524;-86
2023/10/29 02:11:12;;;;;;;0.90;0.70;;;;;;;;;;5019725;28;20022;-87
2023/10/29 02:13:38;;;;;;;0.77;0.70;;;;;;;;;;5016297;28;20033;-87
2023/10/29 02:16:04;;;;;;;0.80;0.70;;;;;;;;;;5015807;28;20091;-87
2023/10/29 02:18:31;;;;;;;1.92;1.20;;;;;;;;;;5016579;28;20032;-87
2023/10/29 02:20:57;;;;;;;0.60;0.60;;;;;;;;;;5015410;28;20112;-88
2023/10/29 02:23:23;;;;;;;0.77;0.65;;;;;;;;;;5016246;28;20046;-88
2023/10/29 02:25:49;;;;;;;0.73;0.70;;;;;;;;;;5014739;28;20024;-87
2023/10/29 02:28:15;;;;;;;1.30;1.02;;;;;;;;;;5015523;28;20078;-87
2023/10/29 02:30:41;;;;;;;0.60;0.60;;;;;;;;;;5015174;28;20029;-89
2023/10/29 02:33:07;;;;;;;0.70;0.68;;;;;;;;;;5023700;28;20025;-87
2023/10/29 02:35:33;;;;;;;0.57;0.52;;;;;;;;;;5020502;28;20085;-88
2023/10/29 02:37:59;;;;;;;1.00;0.80;;;;;;;;;;5015187;28;20029;-88
2023/10/29 02:40:25;;;;;;;0.95;0.85;;;;;;;;;;5015125;28;20037;-87
2023/10/29 02:42:52;;;;;;;0.82;0.70;;;;;;;;;;5014686;28;20088;-88
2023/10/29 02:45:18;;;;;;;0.77;0.70;;;;;;;;;;5014867;28;20026;-87
2023/10/29 02:47:44;;;;;;;0.70;0.70;;;;;;;;;;5014686;28;20026;-88
2023/10/29 02:50:10;;;;;;;1.02;0.88;;;;;;;;;;5014649;28;20092;-87
2023/10/29 02:52:36;;;;;;;0.60;0.60;;;;;;;;;;5014600;28;20061;-87
2023/10/29 02:55:04;;;;;;;0.85;0.73;;;;;;;;;;5014649;28;20469;-87
2023/10/29 02:57:30;;;;;;;0.70;0.70;;;;;;;;;;5014891;28;20030;-88
2023/10/29 02:59:56;;;;;;;0.70;0.60;;;;;;;;;;5015051;28;20025;-89
2023/10/29 03:02:22;;;;;;;1.77;1.10;;;;;;;;;;5015473;28;20033;-88
2023/10/29 03:04:48;;;;;;;1.40;0.98;;;;;;;;;;5014828;28;20445;-87
2023/10/29 03:07:14;;;;;;;0.82;0.70;;;;;;;;;;5014162;28;20461;-88
2023/10/29 03:09:40;;;;;;;0.85;0.70;;;;;;;;;;5015441;28;20022;-87
2023/10/29 03:12:07;;;;;;;0.70;0.60;;;;;;;;;;5014483;28;20034;-88
2023/10/29 03:14:33;;;;;;;1.13;0.60;;;;;;;;;;5014151;28;20064;-88
2023/10/29 03:16:59;;;;;;;0.85;0.82;;;;;;;;;;5014417;28;20018;-88
2023/10/29 03:19:25;;;;;;;0.80;0.75;;;;;;;;;;5015631;28;20022;-88
2023/10/29 03:21:51;;;;;;;0.68;0.60;;;;;;;;;;5014081;28;20022;-88
2023/10/29 03:24:18;;;;;;;0.68;0.65;;;;;;;;;;5015099;28;20033;-88
2023/10/29 03:26:44;;;;;;;1.00;0.80;;;;;;;;;;5014142;28;20053;-87
2023/10/29 03:29:10;;;;;;;0.70;0.60;;;;;;;;;;5014854;28;20030;-88
2023/10/29 03:31:37;;;;;;;1.15;1.00;;;;;;;;;;5014739;28;20026;-87
2023/10/29 03:34:04;;;;;;;0.85;0.75;;;;;;;;;;5013701;28;20032;-87
2023/10/29 03:36:30;;;;;;;0.77;0.70;;;;;;;;;;5014260;28;20136;-88
2023/10/29 03:38:56;;;;;;;0.60;0.60;;;;;;;;;;5013797;28;20029;-87
2023/10/29 03:41:23;;;;;;;1.30;1.08;;;;;;;;;;5015034;28;20129;-88
2023/10/29 03:43:50;;;;;;;0.80;0.70;;;;;;;;;;5014038;28;20474;-88
2023/10/29 03:46:16;;;;;;;3.58;0.95;;;;;;;;;;5014040;28;20030;-88
2023/10/29 03:48:44;;;;;;;0.50;0.50;;;;;;;;;;5013952;28;20030;-87
2023/10/29 03:51:10;;;;;;;0.85;0.73;;;;;;;;;;5014517;28;20025;-88
2023/10/29 03:53:37;;;;;;;1.05;0.75;;;;;;;;;;5013903;28;20469;-88
2023/10/29 03:56:03;;;;;;;0.75;0.70;;;;;;;;;;5013355;28;20018;-89
2023/10/29 03:58:29;;;;;;;1.20;0.80;;;;;;;;;;5013877;28;20054;-88
2023/10/29 04:00:56;;;;;;;0.90;0.80;;;;;;;;;;5019519;28;20063;-88
2023/10/29 04:03:22;;;;;;;0.50;0.50;;;;;;;;;;5013831;28;20067;-89
2023/10/29 04:05:48;;;;;;;0.43;0.43;;;;;;;;;;5013766;28;20044;-88
2023/10/29 04:08:16;;;;;;;0.65;0.63;;;;;;;;;;5013822;28;20026;-90
2023/10/29 04:10:43;;;;;;;0.63;0.60;;;;;;;;;;5013524;28;20025;-88
2023/10/29 04:13:09;;;;;;;0.85;0.80;;;;;;;;;;5015200;28;20072;-88
2023/10/29 04:15:35;;;;;;;0.80;0.70;;;;;;;;;;5013528;28;20117;-89
2023/10/29 04:18:01;;;;;;;0.50;0.50;;;;;;;;;;5013640;28;20026;-87
2023/10/29 04:20:27;;;;;;;0.63;0.60;;;;;;;;;;5014706;28;20022;-87
2023/10/29 04:22:53;;;;;;;0.60;0.60;;;;;;;;;;5015450;28;20157;-87
2023/10/29 04:25:19;;;;;;;0.73;0.70;;;;;;;;;;5013498;28;20021;-88
2023/10/29 04:27:46;;;;;;;2.33;1.02;;;;;;;;;;5027512;28;20026;-86
2023/10/29 04:30:12;;;;;;;0.63;0.60;;;;;;;;;;5017207;28;20465;-87
2023/10/29 04:32:38;;;;;;;0.63;0.60;;;;;;;;;;5013026;28;20036;-87
2023/10/29 04:35:05;;;;;;;0.60;0.60;;;;;;;;;;5013095;28;20081;-88
2023/10/29 04:37:31;;;;;;;0.88;0.70;;;;;;;;;;5013932;28;20053;-88
2023/10/29 04:39:57;;;;;;;0.85;0.80;;;;;;;;;;5013565;28;20141;-88
2023/10/29 04:42:23;;;;;;;1.35;1.08;;;;;;;;;;5013642;28;20029;-88
2023/10/29 04:44:50;;;;;;;1.08;0.82;;;;;;;;;;5014382;28;20026;-87
2023/10/29 04:47:16;;;;;;;0.60;0.60;;;;;;;;;;5016534;28;20022;-88
2023/10/29 04:49:43;;;;;;;1.00;0.70;;;;;;;;;;5017035;28;20033;-87
2023/10/29 04:52:09;;;;;;;0.90;0.80;;;;;;;;;;5017239;28;20033;-88
2023/10/29 04:54:36;;;;;;;0.85;0.75;;;;;;;;;;5016393;28;20029;-88
2023/10/29 04:57:02;;;;;;;0.80;0.70;;;;;;;;;;5017642;28;20119;-87
2023/10/29 04:59:28;;;;;;;2.97;1.40;;;;;;;;;;5016550;28;20088;-88
2023/10/29 05:01:54;;;;;;;0.82;0.70;;;;;;;;;;5018967;28;20125;-88
2023/10/29 05:04:21;;;;;;;0.60;0.60;;;;;;;;;;5018999;28;20077;-90
2023/10/29 05:06:47;;;;;;;0.93;0.85;;;;;;;;;;5017641;28;20121;-88
2023/10/29 05:09:13;;;;;;;0.90;0.75;;;;;;;;;;5016787;28;20026;-90
2023/10/29 05:11:39;;;;;;;0.80;0.70;;;;;;;;;;5016961;28;20037;-88
2023/10/29 05:14:05;;;;;;;1.33;0.73;;;;;;;;;;5016315;28;20026;-89
2023/10/29 05:16:32;;;;;;;0.80;0.70;;;;;;;;;;5016450;28;20107;-90
2023/10/29 05:18:59;;;;;;;0.60;0.60;;;;;;;;;;5017496;28;20120;-88
2023/10/29 05:21:25;;;;;;;0.75;0.73;;;;;;;;;;5019083;28;20094;-90
2023/10/29 05:23:52;;;;;;;0.73;0.70;;;;;;;;;;5019523;28;20018;-90
2023/10/29 05:26:18;;;;;;;0.80;0.70;;;;;;;;;;5017195;28;20018;-89
2023/10/29 05:28:44;;;;;;;0.70;0.65;;;;;;;;;;5016428;28;20021;-89
2023/10/29 05:31:10;;;;;;;0.70;0.70;;;;;;;;;;5016402;28;20033;-90
2023/10/29 05:33:37;;;;;;;0.77;0.70;;;;;;;;;;5016130;28;20018;-89
2023/10/29 05:36:04;;;;;;;1.30;0.90;;;;;;;;;;5015870;28;20135;-90
2023/10/29 05:38:30;;;;;;;0.90;0.80;;;;;;;;;;5016075;28;20069;-88
2023/10/29 05:40:56;;;;;;;0.70;0.70;;;;;;;;;;5018234;28;20022;-89
2023/10/29 05:43:22;;;;;;;1.33;1.00;;;;;;;;;;5017198;28;20461;-88
2023/10/29 05:45:48;;;;;;;1.00;0.80;;;;;;;;;;5021371;28;20049;-90
2023/10/29 05:48:14;;;;;;;1.02;0.80;;;;;;;;;;5018767;28;20022;-89
2023/10/29 05:50:40;;;;;;;1.38;0.93;;;;;;;;;;5019896;28;20087;-89
2023/10/29 05:53:07;;;;;;;0.95;0.70;;;;;;;;;;5017255;28;20432;-89
2023/10/29 05:55:33;;;;;;;1.10;0.80;;;;;;;;;;5018627;28;20026;-87
2023/10/29 05:57:59;;;;;;;0.95;0.80;;;;;;;;;;5020932;28;20018;-90
2023/10/29 06:00:27;;;;;;;0.60;0.60;;;;;;;;;;5015559;28;20026;-89
2023/10/29 06:02:54;;;;;;;1.25;1.15;;;;;;;;;;5016513;28;20125;-91
2023/10/29 06:05:20;;;;;;;0.70;0.70;;;;;;;;;;5016820;28;20516;-88
2023/10/29 06:07:46;;;;;;;1.35;1.23;;;;;;;;;;5015537;28;20118;-88
2023/10/29 06:10:13;;;;;;;0.60;0.60;;;;;;;;;;5015435;28;20022;-89
2023/10/29 06:12:39;;;;;;;0.70;0.60;;;;;;;;;;5015690;28;20084;-88
2023/10/29 06:15:05;;;;;;;0.75;0.65;;;;;;;;;;5016593;28;20022;-89
2023/10/29 06:17:31;;;;;;;0.77;0.70;;;;;;;;;;5015861;28;20022;-89
2023/10/29 06:19:57;;;;;;;1.10;1.00;;;;;;;;;;5016660;28;20018;-89
2023/10/29 06:22:23;;;;;;;1.05;0.82;;;;;;;;;;5015917;28;20125;-89
2023/10/29 06:24:50;;;;;;;0.68;0.68;;;;;;;;;;5015337;28;20437;-88
2023/10/29 06:27:16;;;;;;;0.90;0.70;;;;;;;;;;5016458;28;20080;-88
2023/10/29 06:29:42;;;;;;;1.10;1.00;;;;;;;;;;5015366;28;20080;-88
2023/10/29 06:32:08;;;;;;;0.77;0.60;;;;;;;;;;5015366;28;20037;-88
2023/10/29 06:34:34;;;;;;;0.90;0.70;;;;;;;;;;5015706;28;20584;-89
2023/10/29 06:37:00;;;;;;;0.88;0.70;;;;;;;;;;5015135;28;20076;-89
2023/10/29 06:39:27;;;;;;;1.38;0.90;;;;;;;;;;5017656;28;20022;-89
2023/10/29 06:41:53;;;;;;;0.70;0.70;;;;;;;;;;5016278;28;20051;-89
2023/10/29 06:44:19;;;;;;;0.98;0.70;;;;;;;;;;5015969;28;20029;-89
2023/10/29 06:46:45;;;;;;;0.60;0.60;;;;;;;;;;5014692;28;20084;-88
2023/10/29 06:49:12;;;;;;;1.27;1.00;;;;;;;;;;5014403;28;20022;-89
2023/10/29 06:51:38;;;;;;;0.90;0.70;;;;;;;;;;5014589;28;20092;-89
2023/10/29 06:54:05;;;;;;;1.23;1.02;;;;;;;;;;5015485;28;20108;-89
2023/10/29 06:56:32;;;;;;;0.70;0.60;;;;;;;;;;5014777;28;20022;-90
2023/10/29 06:58:58;;;;;;;0.70;0.70;;;;;;;;;;5015608;28;20109;-89
2023/10/29 07:01:24;;;;;;;0.77;0.70;;;;;;;;;;5015413;28;20030;-89
2023/10/29 07:03:50;;;;;;;0.80;0.77;;;;;;;;;;5015305;28;20022;-89
2023/10/29 07:06:16;;;;;;;0.75;0.63;;;;;;;;;;5014242;28;20036;-90
2023/10/29 07:08:45;;;;;;;0.65;0.65;;;;;;;;;;5014711;28;20458;-89
2023/10/29 07:11:11;;;;;;;1.10;0.90;;;;;;;;;;5014365;28;20029;-90
2023/10/29 07:13:38;;;;;;;0.90;0.70;;;;;;;;;;5014546;28;20058;-91
2023/10/29 07:16:04;;;;;;;0.82;0.70;;;;;;;;;;5014097;28;20022;-90
2023/10/29 07:18:30;;;;;;;1.40;1.15;;;;;;;;;;5014202;28;20018;-90
2023/10/29 07:20:56;;;;;;;0.73;0.65;;;;;;;;;;5015132;28;20053;-90
2023/10/29 07:23:23;;;;;;;0.73;0.60;;;;;;;;;;5015292;28;20022;-87
2023/10/29 07:25:49;;;;;;;0.85;0.75;;;;;;;;;;5014800;28;20440;-88
2023/10/29 07:28:16;;;;;;;0.80;0.70;;;;;;;;;;5013922;28;20030;-88
2023/10/29 07:30:42;;;;;;;0.70;0.60;;;;;;;;;;5014405;28;20034;-90
2023/10/29 07:33:11;;;;;;;0.70;0.70;;;;;;;;;;5013846;28;20117;-87
2023/10/29 07:35:38;;;;;;;0.60;0.60;;;;;;;;;;5014290;28;20081;-88
2023/10/29 07:38:05;;;;;;;0.95;0.70;;;;;;;;;;5013978;28;20057;-86
2023/10/29 07:40:31;;;;;;;1.45;1.23;;;;;;;;;;5014526;28;20445;-87
2023/10/29 07:42:57;;;;;;;0.80;0.70;;;;;;;;;;5014083;28;20103;-86
2023/10/29 07:45:24;;;;;;;1.35;0.90;;;;;;;;;;5015320;28;20030;-86
2023/10/29 07:47:50;;;;;;;1.05;0.80;;;;;;;;;;5013861;28;20029;-87
2023/10/29 07:50:16;;;;;;;0.90;0.70;;;;;;;;;;5038422;28;20053;-84
2023/10/29 07:52:42;;;;;;;0.60;0.60;;;;;;;;;;5021426;28;20034;-87
2023/10/29 07:55:11;;;;;;;0.63;0.60;;;;;;;;;;5021670;28;20048;-86
2023/10/29 07:57:40;;;;;;;1.00;0.80;;;;;;;;;;5028322;28;20029;-86
2023/10/29 08:00:14;;;;;;;0.60;0.57;;;;;;;;;;5013847;28;20034;-87
2023/10/29 08:02:41;;;;;;;0.77;0.70;;;;;;;;;;5014344;28;20026;-87
2023/10/29 08:05:08;;;;;;;0.75;0.73;;;;;;;;;;5014428;28;20026;-86
2023/10/29 08:07:34;;;;;;;0.50;0.50;;;;;;;;;;5014504;28;20112;-85
2023/10/29 08:10:00;;;;;;;0.63;0.60;;;;;;;;;;5013291;28;20132;-87
2023/10/29 08:12:29;;;;;;;0.80;0.70;;;;;;;;;;5014128;28;20034;-87
2023/10/29 08:14:55;;;;;;;0.82;0.70;;;;;;;;;;5013364;28;20022;-88
2023/10/29 08:17:21;;;;;;;1.05;0.93;;;;;;;;;;5012945;28;20026;-86
2023/10/29 08:19:47;;;;;;;0.70;0.63;;;;;;;;;;5016572;28;20028;-86
2023/10/29 08:22:17;;;;;;;0.68;0.60;;;;;;;;;;5017706;28;20542;-86
2023/10/29 08:24:43;;;;;;;1.00;0.80;;;;;;;;;;5016944;28;20393;-87
2023/10/29 08:27:10;;;;;;;0.90;0.80;;;;;;;;;;5018561;28;20056;-86
2023/10/29 08:29:38;;;;;;;0.60;0.60;;;;;;;;;;5017191;28;20040;-85
2023/10/29 08:32:04;;;;;;;0.80;0.70;;;;;;;;;;5017511;28;20490;-86
2023/10/29 08:34:31;;;;;;;0.60;0.60;;;;;;;;;;5017210;28;20112;-84
2023/10/29 08:36:57;;;;;;;0.70;0.70;;;;;;;;;;5000445;28;20512;-85
2023/10/29 08:39:24;;;;;;;0.93;0.73;;;;;;;;;;5000922;28;20030;-86
2023/10/29 08:41:50;;;;;;;0.75;0.60;;;;;;;;;;5001510;28;20093;-84
2023/10/29 08:44:19;;;;;;;0.77;0.60;;;;;;;;;;4992487;28;20030;-85
2023/10/29 08:46:45;;;;;;;0.77;0.70;;;;;;;;;;5017525;28;20377;-85
2023/10/29 08:49:12;;;;;;;0.50;0.50;;;;;;;;;;4981296;28;20022;-84
2023/10/29 08:51:38;;;;;;;0.90;0.73;;;;;;;;;;4980332;28;20027;-85
2023/10/29 08:54:04;;;;;;;0.52;0.52;;;;;;;;;;4997634;28;20113;-85
2023/10/29 08:56:34;;;;;;;0.68;0.68;;;;;;;;;;4980052;28;20094;-84
2023/10/29 08:59:02;;;;;;;0.50;0.50;;;;;;;;;;4979746;28;20018;-85
2023/10/29 09:01:28;;;;;;;0.60;0.60;;;;;;;;;;4980608;28;20454;-85
2023/10/29 09:03:55;;;;;;;0.60;0.60;;;;;;;;;;4983987;28;20026;-84
2023/10/29 09:06:22;;;;;;;0.80;0.80;;;;;;;;;;4980785;28;20022;-84
2023/10/29 09:08:48;;;;;;;0.82;0.77;;;;;;;;;;4980678;28;20019;-84
2023/10/29 09:11:14;;;;;;;1.10;0.88;;;;;;;;;;4997084;28;20022;-84
2023/10/29 09:13:40;;;;;;;0.90;0.75;;;;;;;;;;4981129;28;20038;-84
2023/10/29 09:16:07;;;;;;;0.70;0.70;;;;;;;;;;4980726;28;20033;-84
2023/10/29 09:18:33;;;;;;;0.60;0.60;;;;;;;;;;4979894;28;20033;-86
2023/10/29 09:20:59;;;;;;;0.60;0.60;;;;;;;;;;4981544;28;20109;-83
2023/10/29 09:23:27;;;;;;;0.60;0.60;;;;;;;;;;4980834;28;20026;-85
2023/10/29 09:25:53;;;;;;;0.82;0.70;;;;;;;;;;4979577;28;20033;-85
2023/10/29 09:28:21;;;;;;;0.63;0.63;;;;;;;;;;4979903;28;20021;-83
2023/10/29 09:30:47;;;;;;;0.57;0.57;;;;;;;;;;4996339;28;20025;-85
2023/10/29 09:33:15;;;;;;;0.57;0.57;;;;;;;;;;4979862;28;20022;-85
2023/10/29 09:35:41;;;;;;;0.43;0.43;;;;;;;;;;4987020;28;20050;-85
2023/10/29 09:38:07;;;;;;;0.50;0.50;;;;;;;;;;5012971;28;20018;-85
2023/10/29 09:40:34;;;;;;;0.50;0.50;;;;;;;;;;4999107;28;20026;-86
2023/10/29 09:43:03;;;;;;;0.50;0.50;;;;;;;;;;5011339;28;20062;-87
2023/10/29 09:45:35;;;;;;;1.13;0.70;;;;;;;;;;5015021;28;20020;-86
2023/10/29 09:48:03;;;;;;;0.50;0.50;;;;;;;;;;5002292;28;20052;-85
2023/10/29 09:50:29;;;;;;;0.57;0.57;;;;;;;;;;5011849;28;20038;-85
2023/10/29 09:52:55;;;;;;;1.45;0.75;;;;;;;;;;4995417;28;20022;-85
2023/10/29 09:55:22;;;;;;;0.50;0.50;;;;;;;;;;5004092;28;20030;-84
2023/10/29 09:57:48;;;;;;;0.60;0.60;;;;;;;;;;5003492;28;20026;-84
2023/10/29 10:00:15;;;;;;;0.40;0.40;;;;;;;;;;5015166;28;20029;-86
2023/10/29 10:02:51;;;;;;;0.60;0.60;;;;;;;;;;5015416;28;20363;-84
2023/10/29 10:05:23;;;;;;;0.50;0.50;;;;;;;;;;5006425;28;20105;-84
2023/10/29 10:07:49;;;;;;;0.50;0.50;;;;;;;;;;5008981;28;20033;-83
2023/10/29 10:10:15;;;;;;;0.40;0.40;;;;;;;;;;5001394;28;20175;-84
2023/10/29 10:12:48;;;;;;;0.60;0.60;;;;;;;;;;5015264;28;20489;-84
2023/10/29 10:15:16;;;;;;;0.52;0.52;;;;;;;;;;5002545;28;20033;-83
2023/10/29 10:17:46;;;;;;;0.50;0.50;;;;;;;;;;5002952;28;20031;-84
2023/10/29 10:20:13;;;;;;;0.40;0.40;;;;;;;;;;4997201;28;20077;-83
2023/10/29 10:22:39;;;;;;;0.45;0.45;;;;;;;;;;5001168;28;20043;-83
2023/10/29 10:25:06;;;;;;;0.50;0.50;;;;;;;;;;5015933;28;20025;-84
2023/10/29 10:27:47;;;;;;;0.60;0.60;;;;;;;;;;5016243;28;20469;-83
2023/10/29 10:30:26;;;;;;;0.52;0.52;;;;;;;;;;4997042;28;20102;-83
2023/10/29 10:32:53;;;;;;;0.40;0.40;;;;;;;;;;4995318;28;20117;-85
2023/10/29 10:35:19;;;;;;;0.40;0.40;;;;;;;;;;4994560;28;20116;-84
2023/10/29 10:37:55;;;;;;;0.50;0.50;;;;;;;;;;4996500;28;20026;-85
2023/10/29 10:40:26;;;;;;;0.50;0.50;;;;;;;;;;4995841;28;20022;-84
2023/10/29 10:42:56;;;;;;;0.50;0.50;;;;;;;;;;4995449;28;20030;-85
2023/10/29 10:45:29;;;;;;;0.47;0.47;;;;;;;;;;4994888;28;20018;-84
2023/10/29 10:47:58;;;;;;;0.40;0.40;;;;;;;;;;4995534;28;20449;-84
2023/10/29 10:50:25;;;;;;;0.40;0.40;;;;;;;;;;4995187;28;20113;-83
2023/10/29 10:52:52;;;;;;;0.50;0.50;;;;;;;;;;4994704;28;20042;-83
2023/10/29 10:55:22;;;;;;;0.50;0.50;;;;;;;;;;4994364;28;20382;-83
2023/10/29 10:57:52;;;;;;;0.45;0.45;;;;;;;;;;4994520;28;20470;-82
2023/10/29 11:00:19;;;;;;;0.40;0.40;;;;;;;;;;4994722;28;20121;-84
2023/10/29 11:02:46;;;;;;;0.40;0.40;;;;;;;;;;4995791;28;20033;-83
2023/10/29 11:05:12;;;;;;;0.50;0.50;;;;;;;;;;4995002;28;20030;-83
2023/10/29 11:07:39;;;;;;;0.50;0.50;;;;;;;;;;4995447;28;20022;-86
2023/10/29 11:10:08;;;;;;;0.47;0.47;;;;;;;;;;4996883;28;20026;-84
2023/10/29 11:12:38;;;;;;;0.40;0.40;;;;;;;;;;4997392;28;20034;-85
2023/10/29 11:15:13;;;;;;;0.40;0.40;;;;;;;;;;5001707;28;20033;-86
2023/10/29 11:17:54;;;;;;;0.30;0.30;;;;;;;;;;5007808;28;20076;-85
2023/10/29 11:20:41;;;;;;;0.50;0.50;;;;;;;;;;5019441;28;20029;-86
2023/10/29 11:23:14;;;;;;;0.50;0.50;;;;;;;;;;5018742;28;20022;-84
2023/10/29 11:25:41;;;;;;;0.40;0.40;;;;;;;;;;5018431;28;20057;-84
2023/10/29 11:28:27;;;;;;;0.40;0.40;;;;;;;;;;5020351;28;20462;-83
2023/10/29 11:31:15;;;;;;;3.10;0.70;;;;;;;;;;5017797;28;20030;-84
2023/10/29 11:33:43;;;;;;;0.50;0.50;;;;;;;;;;5025595;28;20078;-83
2023/10/29 11:36:28;;;;;;;0.40;0.40;;;;;;;;;;5025759;28;20056;-82
2023/10/29 11:38:54;;;;;;;0.45;0.45;;;;;;;;;;5025631;28;20030;-83
2023/10/29 11:41:34;;;;;;;0.40;0.40;;;;;;;;;;5026994;28;20022;-84
2023/10/29 11:44:28;;;;;;;0.30;0.30;;;;;;;;;;5025295;28;20394;-82
2023/10/29 11:47:03;;;;;;;0.30;0.30;;;;;;;;;;5033693;28;20026;-80
2023/10/29 11:49:50;;;;;;;0.40;0.40;;;;;;;;;;5036933;28;20020;-81
2023/10/29 11:52:17;;;;;;;0.40;0.40;;;;;;;;;;5025035;28;20057;-81
2023/10/29 11:54:44;;;;;;;0.30;0.30;;;;;;;;;;5032258;28;20482;-81
2023/10/29 11:57:10;;;;;;;0.30;0.30;;;;;;;;;;5014874;28;20331;-81
2023/10/29 11:59:55;;;;;;;0.30;0.30;;;;;;;;;;5005093;28;20030;-81
2023/10/29 12:02:22;;;;;;;0.30;0.30;;;;;;;;;;5015858;28;20386;-81
2023/10/29 12:04:48;;;;;;;0.30;0.30;;;;;;;;;;5014262;28;20032;-81
2023/10/29 12:07:29;;;;;;;0.30;0.30;;;;;;;;;;5013646;28;20018;-82
2023/10/29 12:10:01;;;;;;;0.40;0.40;;;;;;;;;;5013384;28;20018;-81
2023/10/29 12:12:28;;;;;;;0.47;0.47;;;;;;;;;;5013912;28;20037;-82
2023/10/29 12:14:54;;;;;;;0.40;0.40;;;;;;;;;;5013349;28;20018;-81
2023/10/29 12:17:20;;;;;;;0.30;0.30;;;;;;;;;;5013271;28;20026;-83
2023/10/29 12:19:46;;;;;;;0.30;0.30;;;;;;;;;;5012832;28;20026;-82
2023/10/29 12:22:22;;;;;;;0.50;0.50;;;;;;;;;;5013151;28;20048;-82
2023/10/29 12:24:55;;;;;;;0.25;0.25;;;;;;;;;;5013489;28;20117;-82
2023/10/29 12:27:22;;;;;;;0.25;0.25;;;;;;;;;;5013289;28;20030;-80
2023/10/29 12:29:49;;;;;;;0.28;0.28;;;;;;;;;;5013312;28;20034;-82
2023/10/29 12:32:22;;;;;;;0.30;0.30;;;;;;;;;;5009170;28;20033;-84
2023/10/29 12:34:51;;;;;;;0.30;0.30;;;;;;;;;;5007775;28;20140;-84
2023/10/29 12:37:21;;;;;;;0.52;0.35;;;;;;;;;;4981945;28;20044;-84
2023/10/29 12:39:49;;;;;;;0.30;0.30;;;;;;;;;;5006210;28;20019;-83
2023/10/29 12:42:15;;;;;;;0.30;0.30;;;;;;;;;;5007365;28;20030;-84
2023/10/29 12:44:52;;;;;;;0.30;0.30;;;;;;;;;;4999062;28;20084;-84
2023/10/29 12:47:18;;;;;;;0.20;0.20;;;;;;;;;;4982076;28;20030;-83
2023/10/29 12:49:44;;;;;;;0.20;0.20;;;;;;;;;;5007706;28;20033;-83
2023/10/29 12:52:13;;;;;;;0.30;0.30;;;;;;;;;;5004999;28;20038;-83
2023/10/29 12:54:45;;;;;;;0.20;0.20;;;;;;;;;;4998275;28;20093;-85
2023/10/29 12:57:15;;;;;;;0.20;0.20;;;;;;;;;;4996707;28;20046;-85
2023/10/29 12:59:42;;;;;;;0.25;0.25;;;;;;;;;;5006103;28;20019;-86
2023/10/29 13:02:20;;;;;;;0.20;0.20;;;;;;;;;;5008205;28;20022;-82
2023/10/29 13:04:47;;;;;;;0.30;0.30;;;;;;;;;;5004795;28;20038;-84
2023/10/29 13:07:14;;;;;;;0.30;0.30;;;;;;;;;;4999431;28;20169;-84
2023/10/29 13:09:41;;;;;;;0.20;0.20;;;;;;;;;;5009934;28;20359;-83
2023/10/29 13:12:11;;;;;;;0.30;0.30;;;;;;;;;;5008940;28;20080;-83
2023/10/29 13:14:38;;;;;;;0.20;0.20;;;;;;;;;;5003569;28;20026;-85
2023/10/29 13:17:04;;;;;;;0.30;0.30;;;;;;;;;;5012721;28;20032;-86
2023/10/29 13:19:30;;;;;;;0.20;0.20;;;;;;;;;;5002304;28;20519;-84
2023/10/29 13:21:56;;;;;;;0.40;0.40;;;;;;;;;;5006729;28;20035;-84
2023/10/29 13:24:23;;;;;;;0.65;0.38;;;;;;;;;;5008759;28;20025;-83
2023/10/29 13:26:50;;;;;;;0.30;0.30;;;;;;;;;;4999638;28;20050;-85
2023/10/29 13:29:16;;;;;;;0.30;0.30;;;;;;;;;;5014165;28;20026;-87
2023/10/29 13:31:43;;;;;;;0.20;0.20;;;;;;;;;;5004747;28;20473;-83
2023/10/29 13:34:10;;;;;;;0.70;0.35;;;;;;;;;;5003945;28;20430;-83
2023/10/29 13:36:39;;;;;;;0.20;0.20;;;;;;;;;;5009966;28;20572;-81
2023/10/29 13:39:09;;;;;;;0.30;0.30;;;;;;;;;;5012651;28;20092;-80
2023/10/29 13:41:37;;;;;;;0.30;0.30;;;;;;;;;;4986100;28;20029;-82
2023/10/29 13:44:03;;;;;;;0.32;0.32;;;;;;;;;;5004208;28;20034;-82
2023/10/29 13:46:30;;;;;;;0.30;0.30;;;;;;;;;;4992278;28;20026;-84
2023/10/29 13:48:57;;;;;;;0.52;0.47;;;;;;;;;;4997550;28;20030;-84
2023/10/29 13:51:23;;;;;;;0.30;0.30;;;;;;;;;;5020731;28;20025;-82
2023/10/29 13:53:49;;;;;;;0.30;0.30;;;;;;;;;;5012335;28;20085;-82
2023/10/29 13:56:16;;;;;;;0.28;0.28;;;;;;;;;;5005754;28;20481;-82
2023/10/29 13:58:43;;;;;;;0.85;0.85;;;;;;;;;;4998586;28;20430;-80
2023/10/29 14:01:19;;;;;;;0.40;0.40;;;;;;;;;;4997553;28;20022;-82
2023/10/29 14:03:46;;;;;;;0.30;0.30;;;;;;;;;;5007819;28;20038;-83
2023/10/29 14:06:13;;;;;;;0.30;0.30;;;;;;;;;;5005926;28;20092;-83
2023/10/29 14:08:39;;;;;;;0.20;0.20;;;;;;;;;;5000887;28;20030;-83
2023/10/29 14:11:06;;;;;;;0.30;0.30;;;;;;;;;;5013063;28;20470;-85
2023/10/29 14:13:32;;;;;;;0.38;0.38;;;;;;;;;;5010247;28;20089;-84
2023/10/29 14:16:01;;;;;;;0.30;0.30;;;;;;;;;;5005456;28;20029;-84
2023/10/29 14:18:28;;;;;;;0.30;0.30;;;;;;;;;;5000966;28;20023;-82
2023/10/29 14:20:55;;;;;;;0.50;0.50;;;;;;;;;;5013310;28;20491;-83
2023/10/29 14:23:24;;;;;;;0.30;0.30;;;;;;;;;;5010184;28;20031;-84
2023/10/29 14:25:50;;;;;;;0.30;0.30;;;;;;;;;;5003118;28;20485;-84
2023/10/29 14:28:16;;;;;;;0.32;0.32;;;;;;;;;;5003758;28;20470;-84
2023/10/29 14:30:42;;;;;;;0.38;0.38;;;;;;;;;;5008827;28;20485;-83
2023/10/29 14:33:08;;;;;;;0.57;0.57;;;;;;;;;;5003379;28;20088;-84
2023/10/29 14:35:35;;;;;;;0.88;0.82;;;;;;;;;;4994999;28;20050;-84
2023/10/29 14:38:02;;;;;;;0.50;0.50;;;;;;;;;;4995258;28;20473;-84
2023/10/29 14:40:29;;;;;;;0.40;0.40;;;;;;;;;;4995664;28;20022;-84
2023/10/29 14:42:56;;;;;;;0.77;0.40;;;;;;;;;;4995163;28;20390;-83
2023/10/29 14:45:22;;;;;;;0.63;0.63;;;;;;;;;;4996541;28;20018;-84